createdAt,value
2022-09-11T00:08:25.699Z,9.80
2022-09-11T00:18:29.573Z,9.80
2022-09-11T00:28:34.861Z,9.70
2022-09-11T00:38:39.976Z,9.60
2022-09-11T00:48:50.194Z,9.60
2022-09-11T00:58:56.370Z,9.80
2022-09-11T01:09:01.837Z,10.10
2022-09-11T01:19:19.655Z,10.20
2022-09-11T01:29:30.807Z,10.50
2022-09-11T01:39:41.778Z,10.90
2022-09-11T01:49:50.528Z,11.20
2022-09-11T02:00:03.353Z,11.40
2022-09-11T02:10:17.356Z,11.60
2022-09-11T02:20:21.842Z,11.70
2022-09-11T02:30:26.996Z,11.70
2022-09-11T02:40:46.627Z,11.30
2022-09-11T02:51:01.555Z,11.10
2022-09-11T03:01:06.438Z,10.90
2022-09-11T03:11:12.412Z,11.20
2022-09-11T03:21:17.063Z,11.40
2022-09-11T03:31:22.508Z,11.50
2022-09-11T03:41:26.907Z,11.20
2022-09-11T03:51:32.467Z,11.10
2022-09-11T04:01:36.797Z,10.90
2022-09-11T04:11:42.093Z,10.90
2022-09-11T04:21:55.394Z,11.20
2022-09-11T04:32:00.858Z,11.40
2022-09-11T04:42:10.614Z,11.60
2022-09-11T04:52:17.350Z,11.90
2022-09-11T05:02:22.049Z,12.10
2022-09-11T05:12:33.691Z,12.30
2022-09-11T05:22:37.479Z,12.50
2022-09-11T05:32:42.566Z,12.90
2022-09-11T05:42:46.390Z,13.30
2022-09-11T05:52:52.361Z,13.40
2022-09-11T06:02:56.331Z,13.70
2022-09-11T06:13:05.178Z,14.10
2022-09-11T06:23:13.343Z,15.20
2022-09-11T06:33:20.493Z,15.20
2022-09-11T06:43:25.118Z,15.90
2022-09-11T06:53:30.291Z,15.60
2022-09-11T07:03:35.100Z,15.00
2022-09-11T07:13:44.513Z,15.00
2022-09-11T07:23:50.753Z,15.20
2022-09-11T07:33:57.077Z,15.20
2022-09-11T07:44:03.773Z,15.50
2022-09-11T07:54:15.873Z,15.80
2022-09-11T08:04:20.452Z,15.40
2022-09-11T08:14:27.475Z,15.00
2022-09-11T08:24:36.772Z,14.50
2022-09-11T08:34:43.443Z,14.30
2022-09-11T08:44:51.417Z,15.10
2022-09-11T08:55:02.404Z,15.60
2022-09-11T09:05:22.696Z,15.60
2022-09-11T09:15:39.219Z,15.40
2022-09-11T09:25:44.627Z,15.60
2022-09-11T09:35:51.292Z,15.90
2022-09-11T09:46:16.043Z,17.40
2022-09-11T09:56:25.555Z,18.70
2022-09-11T10:06:29.517Z,17.80
2022-09-11T10:16:35.167Z,17.80
2022-09-11T10:26:46.096Z,18.50
2022-09-11T10:37:00.806Z,20.30
2022-09-11T10:47:07.040Z,20.40
2022-09-11T10:57:20.297Z,20.10
2022-09-11T11:07:57.806Z,20.20
2022-09-11T11:18:23.826Z,20.10
2022-09-11T11:28:49.045Z,19.10
2022-09-11T11:39:02.101Z,19.00
2022-09-11T11:49:10.811Z,19.10
2022-09-11T11:59:24.434Z,19.50
2022-09-11T12:09:33.929Z,18.70
2022-09-11T12:19:39.041Z,18.80
2022-09-11T12:29:54.387Z,18.30
2022-09-11T12:40:09.263Z,18.50
2022-09-11T12:50:20.445Z,22.00
2022-09-11T13:00:38.010Z,23.00
2022-09-11T13:10:42.117Z,22.00
2022-09-11T13:21:04.876Z,21.20
2022-09-11T13:31:17.326Z,20.80
2022-09-11T13:41:29.861Z,19.20
2022-09-11T13:51:34.967Z,18.00
2022-09-11T14:01:55.661Z,17.90
2022-09-11T14:12:04.403Z,18.20
2022-09-11T14:22:22.760Z,17.80
2022-09-11T14:32:37.020Z,17.80
2022-09-11T14:42:44.221Z,18.30
2022-09-11T14:52:48.022Z,19.30
2022-09-11T15:02:53.959Z,18.70
2022-09-11T15:12:58.856Z,17.40
2022-09-11T15:23:06.618Z,16.30
2022-09-11T15:33:10.962Z,14.60
2022-09-11T15:43:16.056Z,13.90
2022-09-11T15:53:21.714Z,14.00
2022-09-11T16:03:27.481Z,13.90
2022-09-11T16:13:32.535Z,13.90
2022-09-11T16:23:38.661Z,14.10
2022-09-11T16:33:45.421Z,14.00
2022-09-11T16:43:52.598Z,13.70
2022-09-11T16:53:56.487Z,13.40
2022-09-11T17:04:01.725Z,13.20
2022-09-11T17:14:05.638Z,13.20
2022-09-11T17:24:10.936Z,13.20
2022-09-11T17:34:15.748Z,13.20
2022-09-11T17:44:24.229Z,13.20
2022-09-11T17:54:28.302Z,13.20
2022-09-11T18:04:33.050Z,13.10
2022-09-11T18:14:39.789Z,12.90
2022-09-11T18:24:44.836Z,12.80
2022-09-11T18:34:49.792Z,12.60
2022-09-11T18:44:54.674Z,12.50
2022-09-11T18:55:00.093Z,12.50
2022-09-11T19:05:06.056Z,12.10
2022-09-11T19:15:11.707Z,11.70
2022-09-11T19:25:17.234Z,11.50
2022-09-11T19:35:21.210Z,11.40
2022-09-11T19:45:26.255Z,11.30
2022-09-11T19:55:29.978Z,11.20
2022-09-11T20:05:35.185Z,11.00
2022-09-11T20:15:40.098Z,10.80
2022-09-11T20:25:45.128Z,10.70
2022-09-11T20:35:48.779Z,10.70
2022-09-11T20:45:55.637Z,10.70
2022-09-11T20:56:03.350Z,10.60
2022-09-11T21:06:09.933Z,10.60
2022-09-11T21:16:16.019Z,10.50
2022-09-11T21:26:20.997Z,10.20
2022-09-11T21:36:24.933Z,10.00
2022-09-11T21:46:30.024Z,9.70
2022-09-11T21:56:35.302Z,9.40
2022-09-11T22:06:40.387Z,9.20
2022-09-11T22:16:44.105Z,8.90
2022-09-11T22:26:49.349Z,8.80
2022-09-11T22:36:52.930Z,8.90
2022-09-11T22:46:58.028Z,8.80
2022-09-11T22:57:01.743Z,8.70
2022-09-11T23:07:17.018Z,8.80
2022-09-11T23:17:20.701Z,8.90
2022-09-11T23:27:25.904Z,9.00
2022-09-11T23:37:29.516Z,9.20
2022-09-11T23:47:34.503Z,8.90
2022-09-11T23:57:38.388Z,8.70
